Terminal Aerodrome Forecast
Issued by NWS Albany, NY

Current Version | Previous Version | Text Only | Print | Product List | Glossary On
Versions: 1 2 3 4 5 6 7 8 9 10 11 12 13 14
000
FTUS41 KALY 122300
TAFPOU
TAF
KPOU 122336Z 1300/1324 18003KT P6SM FEW050 SCT200
     FM130700 VRB02KT 5SM BR FEW050 BKN150
     FM131200 20007KT P6SM SCT050 BKN120
     FM131800 20009KT P6SM VCSH BKN050 OVC090 PROB30 1318/1324 3SM
      TSRA BR OVC025CB=

USA.gov is the U.S. government's official web portal to all federal, state and local government web resources and services.